»·PEaware :: N168CF KPSP-KABQ

N168CF :: KPSP-KABQ

FLIGHT INFORMATION

Flight Status: Arrived
Operator: Privately registered:
United States
More flights under this callsign
Pilot: Anonymous 14085 (14085)
Aircraft: MCDONNELL-DOUGLAS MD-88
(MD88)
More flights by this aircraft type
Origin: KPSP Palm Springs Intl
United States
Destination: KABQ Albuquerque Intl Sunport
United States
More flights between these airports :: More routes between these airports
Route: +CATH1 PSP BLH SJN LAVAN3
File this flight plan on PilotEdge
Remarks:
Altitude:
(Current/Filed)
35,000ft
Speed:
(Current/Filed)
450kts
Departed: 18-Dec-17 05:27 PM
Arrived: 18-Dec-17 06:48 PM
Distance/Time
Traveled:
494nm/1:21
Distance/Time
To Go:
Arrived

Flight Plot

Page will automatically refresh every two minutes.

Flight plan parsing failed; only flown route is shown


Map Options




Map Legend


Flown Route
Filed Route
Departure Airport
Arrival Airport
Navaid (VOR, NDB)
Fix

Horizontal Profiles

Position Reports

Time Latitude Longitude Heading Altitude Ground
Speed
18-Dec-17 16:55 33.822584 -116.495876 233 483ft 0kts
18-Dec-17 16:56 33.822584 -116.495876 233 483ft 0kts
18-Dec-17 16:57 33.822584 -116.495876 233 483ft 0kts
18-Dec-17 16:58 33.822584 -116.495876 233 483ft 0kts
18-Dec-17 16:59 33.822584 -116.495876 233 483ft 0kts
18-Dec-17 17:00 33.822584 -116.495876 233 483ft 0kts
18-Dec-17 17:01 33.822584 -116.495876 233 483ft 0kts
18-Dec-17 17:02 33.822584 -116.495876 233 483ft 0kts
18-Dec-17 17:03 33.822584 -116.495876 233 483ft 0kts
18-Dec-17 17:04 33.822584 -116.495876 233 483ft 0kts
18-Dec-17 17:05 33.822584 -116.495876 233 483ft 0kts
18-Dec-17 17:06 33.822584 -116.495876 233 483ft 0kts
18-Dec-17 17:07 33.822584 -116.495876 233 483ft 0kts
18-Dec-17 17:08 33.822584 -116.495876 233 483ft 0kts
18-Dec-17 17:09 33.822584 -116.495876 233 483ft 0kts
18-Dec-17 17:10 33.822584 -116.495876 233 483ft 0kts
18-Dec-17 17:11 33.822584 -116.495876 233 483ft 0kts
18-Dec-17 17:12 33.822584 -116.495876 232 483ft 0kts
18-Dec-17 17:13 33.822584 -116.495876 232 483ft 0kts
18-Dec-17 17:14 33.822584 -116.495876 233 483ft 0kts
18-Dec-17 17:15 33.822584 -116.495876 233 483ft 0kts
18-Dec-17 17:16 33.822584 -116.495876 233 483ft 0kts
18-Dec-17 17:17 33.822531 -116.495959 233 483ft 0kts
18-Dec-17 17:18 33.822390 -116.496183 233 483ft 0kts
18-Dec-17 17:19 33.822390 -116.496183 233 483ft 0kts
18-Dec-17 17:20 33.822386 -116.496190 233 483ft 0kts
18-Dec-17 17:21 33.821931 -116.496717 187 483ft 5kts
18-Dec-17 17:22 33.820446 -116.495447 161 483ft 0kts
18-Dec-17 17:23 33.820101 -116.495688 224 483ft 5kts
18-Dec-17 17:24 33.819693 -116.496307 234 483ft 2kts
18-Dec-17 17:25 33.819340 -116.496877 233 483ft 0kts
18-Dec-17 17:26 33.819340 -116.496877 233 483ft 0kts
18-Dec-17 17:27 33.819340 -116.496877 233 483ft 0kts
18-Dec-17 17:28 33.819340 -116.496877 233 483ft 0kts
18-Dec-17 17:29 33.819340 -116.496877 233 483ft 0kts
18-Dec-17 17:30 33.819340 -116.496877 233 483ft 0kts
18-Dec-17 17:31 33.819340 -116.496877 233 483ft 0kts
18-Dec-17 17:32 33.819181 -116.497136 233 483ft 7kts
18-Dec-17 17:33 33.829988 -116.507929 321 484ft 160kts
18-Dec-17 17:34 33.863618 -116.540188 319 4685ft 153kts
18-Dec-17 17:35 33.899423 -116.571510 349 6237ft 208kts
18-Dec-17 17:36 33.935475 -116.514679 99 8410ft 278kts
18-Dec-17 17:37 33.919437 -116.418255 102 10979ft 326kts
18-Dec-17 17:38 33.897588 -116.307348 103 13818ft 354kts
18-Dec-17 17:39 33.874125 -116.190282 103 16663ft 370kts
18-Dec-17 17:40 33.849645 -116.067804 103 19253ft 385kts
18-Dec-17 17:41 33.824302 -115.940384 103 21598ft 399kts
18-Dec-17 17:42 33.802638 -115.830931 102 23385ft 410kts
18-Dec-17 17:43 33.771549 -115.672994 102 25671ft 425kts
18-Dec-17 17:44 33.744180 -115.533104 102 27425ft 437kts
18-Dec-17 17:45 33.720987 -115.413917 102 28722ft 446kts
18-Dec-17 17:46 33.688819 -115.247607 102 30561ft 450kts
18-Dec-17 17:47 33.665468 -115.126144 102 31949ft 448kts
18-Dec-17 17:48 33.637928 -114.982095 102 33492ft 445kts
18-Dec-17 17:49 33.608474 -114.827053 102 35006ft 441kts
18-Dec-17 17:50 33.607280 -114.685180 76 35133ft 434kts
18-Dec-17 17:51 33.624828 -114.566263 80 35124ft 436kts
18-Dec-17 17:52 33.643124 -114.423313 80 35124ft 436kts
18-Dec-17 17:53 33.661806 -114.276781 80 35123ft 436kts
18-Dec-17 17:54 33.677045 -114.158138 80 35123ft 436kts
18-Dec-17 17:55 33.695582 -114.014970 80 35123ft 436kts
18-Dec-17 17:56 33.714169 -113.872664 80 35123ft 436kts
18-Dec-17 17:57 33.732521 -113.733354 80 35124ft 436kts
18-Dec-17 17:58 33.751804 -113.588233 80 35133ft 451kts
18-Dec-17 17:59 33.771873 -113.438494 80 35124ft 457kts
18-Dec-17 18:00 33.791577 -113.292785 80 35123ft 457kts
18-Dec-17 18:01 33.812056 -113.142654 80 35123ft 457kts
18-Dec-17 18:02 33.832725 -112.992435 80 35123ft 457kts
18-Dec-17 18:03 33.853114 -112.845523 79 35123ft 457kts
18-Dec-17 18:04 33.874064 -112.695838 79 35123ft 457kts
18-Dec-17 18:05 33.895268 -112.545629 79 35124ft 457kts
18-Dec-17 18:06 33.916719 -112.394947 79 35124ft 457kts
18-Dec-17 18:07 33.937924 -112.247267 79 35123ft 457kts
18-Dec-17 18:08 33.959640 -112.097243 79 35123ft 457kts
18-Dec-17 18:09 33.981403 -111.948126 79 35123ft 457kts
18-Dec-17 18:10 34.001642 -111.809791 77 35103ft 456kts
18-Dec-17 18:11 34.024477 -111.656709 76 35183ft 479kts
18-Dec-17 18:12 34.048488 -111.496024 77 35185ft 489kts
18-Dec-17 18:13 34.072685 -111.335523 78 35184ft 492kts
18-Dec-17 18:14 34.096888 -111.176406 78 35181ft 493kts
18-Dec-17 18:15 34.121542 -111.015669 77 35183ft 493kts
18-Dec-17 18:16 34.146474 -110.854498 78 35186ft 492kts
18-Dec-17 18:17 34.166169 -110.728182 78 35199ft 493kts
18-Dec-17 18:18 34.190954 -110.570167 77 35213ft 493kts
18-Dec-17 18:19 34.216530 -110.408633 77 35215ft 493kts
18-Dec-17 18:20 34.241858 -110.249908 78 35208ft 493kts
18-Dec-17 18:21 34.267848 -110.088335 78 35209ft 493kts
18-Dec-17 18:22 34.294075 -109.926591 77 35211ft 493kts
18-Dec-17 18:23 34.320328 -109.766249 78 35202ft 489kts
18-Dec-17 18:24 34.346184 -109.608834 77 35185ft 489kts
18-Dec-17 18:25 34.370691 -109.461409 77 35187ft 488kts
18-Dec-17 18:26 34.396900 -109.304702 77 35181ft 489kts
18-Dec-17 18:27 34.423716 -109.145570 77 35182ft 489kts
18-Dec-17 18:28 34.449709 -108.987594 78 34654ft 490kts
18-Dec-17 18:29 34.475416 -108.829109 78 32662ft 480kts
18-Dec-17 18:30 34.500373 -108.676280 79 30766ft 484kts
18-Dec-17 18:31 34.526561 -108.516832 79 28822ft 486kts
18-Dec-17 18:32 34.553166 -108.356371 79 26869ft 486kts
18-Dec-17 18:33 34.577915 -108.208247 80 24933ft 457kts
18-Dec-17 18:34 34.602542 -108.061787 80 22919ft 435kts
18-Dec-17 18:35 34.626377 -107.921034 80 20576ft 420kts
18-Dec-17 18:36 34.686071 -107.809646 22 18181ft 411kts
18-Dec-17 18:37 34.769599 -107.733304 58 16252ft 385kts
18-Dec-17 18:38 34.816119 -107.622337 73 14424ft 361kts
18-Dec-17 18:39 34.845700 -107.510972 71 13091ft 334kts
18-Dec-17 18:40 34.874832 -107.407406 70 11879ft 313kts
18-Dec-17 18:41 34.900738 -107.315298 78 11959ft 268kts
18-Dec-17 18:42 34.875373 -107.234487 118 11555ft 260kts
18-Dec-17 18:43 34.842874 -107.156664 112 10555ft 257kts
18-Dec-17 18:44 34.842035 -107.072483 70 9973ft 248kts
18-Dec-17 18:45 34.875729 -107.004023 58 9663ft 243kts
18-Dec-17 18:46 34.910810 -106.937923 55 8420ft 218kts
18-Dec-17 18:47 34.944650 -106.881057 55 7260ft 198kts
18-Dec-17 18:48 34.976816 -106.827179 55 6716ft 198kts
18-Dec-17 18:49 35.002112 -106.769594 85 6196ft 191kts
18-Dec-17 18:50 35.005443 -106.707828 85 5844ft 176kts
18-Dec-17 18:51 35.032256 -106.667314 12 6071ft 156kts
18-Dec-17 18:52 35.052532 -106.636631 129 5582ft 137kts
18-Dec-17 18:53 35.044225 -106.601319 90 5327ft 53kts
18-Dec-17 18:54 35.042593 -106.600769 263 5328ft 13kts
18-Dec-17 18:55 35.042422 -106.605265 264 5321ft 24kts
18-Dec-17 18:56 35.042436 -106.610479 270 5321ft 9kts
18-Dec-17 18:57 35.042130 -106.613729 202 5321ft 16kts
18-Dec-17 18:58 35.038551 -106.613998 194 5321ft 16kts
18-Dec-17 18:59 35.036350 -106.616276 282 5321ft 2kts
18-Dec-17 19:00 35.036270 -106.617815 238 5321ft 4kts
18-Dec-17 19:01 35.035971 -106.618616 4 5321ft 2kts

Navigation Log

Ident Type
Flight plan parsing failed, navigation log unavailable